Campanya meteocatpedra

Dades EMA Oliola

?
?
Resum diari 22:30 TU
Dades diàries de l'estació meteorològica
Temperatura mitjana 21.5 °C
Temperatura màxima 30.0 °C 13:14 TU
Temperatura mínima 10.2 °C 4:50 TU
Humitat relativa mitjana 54%
Precipitació acumulada 0.0 mm
Ratxa màxima del vent (2 m) 24.1 km/h - 255º 12:39 TU
Irradiació solar global 29.9 MJ/m2

El tram horari està expressat en Temps Universal (TU). Cal sumar una hora en horari d'hivern i dues en horari d'estiu per passar a l'hora oficial.

Oliola

Metadades estació meteorol´gica
Municipi Oliola
Comarca Noguera
Altitud 443 m
Data alta 26.03.2001
Estat actual Operativa
Dades de període
Període
TU
TM
°C
TX
°C
TN
°C
HRM
%
PPT
mm
VVM (2 m)
km/h
DVM (2 m)
graus
VVX (2 m)
km/h
RS
W/m2
00:00 - 00:30 13.9 14.4 13.1 80 0.0 2.2 87 5.0 0
00:30 - 01:00 13.5 14.4 13.0 84 0.0 2.5 92 5.4 0
01:00 - 01:30 13.4 13.8 12.8 84 0.0 1.8 85 4.7 0
01:30 - 02:00 13.3 13.6 12.0 84 0.0 1.1 50 2.9 0
02:00 - 02:30 12.7 13.0 12.0 89 0.0 1.1 352 3.2 0
02:30 - 03:00 11.9 12.3 11.2 90 0.0 0.7 97 4.0 0
03:00 - 03:30 11.2 11.6 10.9 93 0.0 0.4 73 3.2 0
03:30 - 04:00 10.8 11.6 10.3 93 0.0 0.4 42 2.9 0
04:00 - 04:30 10.7 11.0 10.3 95 0.0 0.4 321 2.5 2
04:30 - 05:00 10.4 10.6 10.2 95 0.0 0.4 110 2.2 15
05:00 - 05:30 11.6 13.6 10.3 95 0.0 0.0 47 2.2 90
05:30 - 06:00 14.3 15.8 13.1 84 0.0 1.1 91 6.1 170
06:00 - 06:30 16.5 17.9 16.0 75 0.0 1.4 110 6.5 260
06:30 - 07:00 18.2 19.3 17.7 66 0.0 3.2 49 7.9 358
07:00 - 07:30 20.6 21.8 19.4 55 0.0 3.6 52 8.3 459
07:30 - 08:00 22.8 23.6 21.9 49 0.0 2.9 123 7.9 551
08:00 - 08:30 24.0 24.7 23.5 44 0.0 4.0 184 12.6 637
08:30 - 09:00 25.1 25.6 24.4 39 0.0 4.7 293 11.9 716
09:00 - 09:30 25.8 26.4 25.3 37 0.0 5.8 284 15.1 784
09:30 - 10:00 26.5 27.1 26.1 36 0.0 6.8 256 16.2 840
10:00 - 10:30 26.9 27.6 26.4 35 0.0 8.6 245 23.8 883
10:30 - 11:00 27.3 27.9 26.8 35 0.0 8.3 273 17.6 915
11:00 - 11:30 28.0 28.6 27.5 34 0.0 9.4 224 21.6 936
11:30 - 12:00 28.2 29.0 27.7 33 0.0 10.1 245 23.0 947
12:00 - 12:30 28.6 29.3 27.8 32 0.0 8.3 248 20.5 946
12:30 - 13:00 29.3 29.7 28.8 31 0.0 10.8 234 24.1 933
13:00 - 13:30 29.4 30.0 28.9 31 0.0 9.4 256 22.7 901
13:30 - 14:00 29.2 29.7 28.8 31 0.0 9.4 254 22.3 861
14:00 - 14:30 29.5 29.9 29.0 31 0.0 8.6 245 20.5 810
14:30 - 15:00 29.6 29.9 29.3 30 0.0 7.2 226 16.2 746
15:00 - 15:30 29.5 29.9 29.2 30 0.0 9.0 250 17.6 673
15:30 - 16:00 29.6 30.0 29.3 30 0.0 7.9 232 16.9 589
16:00 - 16:30 29.6 30.0 29.4 29 0.0 6.8 197 16.6 496
16:30 - 17:00 29.5 29.9 29.2 28 0.0 6.5 213 17.6 402
17:00 - 17:30 28.9 29.2 28.7 30 0.0 9.4 239 15.8 308
17:30 - 18:00 28.4 28.7 27.6 31 0.0 10.4 247 20.9 202
18:00 - 18:30 26.5 27.4 25.8 35 0.0 12.6 222 20.2 117
18:30 - 19:00 25.0 25.8 24.1 38 0.0 10.4 217 17.3 44
19:00 - 19:30 23.4 24.1 23.0 41 0.0 8.6 210 14.4 6
19:30 - 20:00 22.1 23.0 20.7 43 0.0 4.0 156 11.2 0
20:00 - 20:30 19.2 20.7 18.2 53 0.0 1.4 18 4.7 0
20:30 - 21:00 18.5 19.0 17.9 55 0.0 1.1 320 4.7 0
21:00 - 21:30 17.4 17.8 16.5 60 0.0 1.8 339 4.7 0
21:30 - 22:00 16.8 17.0 16.6 62 0.0 0.7 282 2.5 0
22:00 - 22:30 16.5 17.0 16.1 63 0.0 1.1 359 2.5 0
22:30 - 23:00 15.7 16.1 15.2 69 0.0 1.8 359 5.0 0

Les dades en taronja només han passat un control de qualitat automàtic. Resta pendent la seva validació definitiva.